Cabo Frio, Brazil
Current Conditions -  °F | °C
As of 3:00 PM on Thursday 23 Oct 2014 (Local Time) from SBCB Reporting Station
Clear Clear  
Wind Chill: 90°   Ceiling: Unl
Heat Index: 93°   Visibility: 6mi
Dew Point: 68°   Wind: 17mph
Humidity: 49%   Direction: 100°E
Pressure: 30.09"   Gusts: NA
Location:  22.89°S, 42.04°W
Report Text: SBCB 231700Z 10015KT CAVOK 32/20 Q1019
Loading
Personal Weather Stations






























Interactive Weather Map
Tropical Storm Tracking
New forecast layout! Learn more

10-Day Weather Forecast

Advertisements
Track Severe Weather on mobile